Time;durP1;ratioP1;P1;durP2;ratioP2;P2;SDS_P1;SDS_P2;PMS_P1;PMS_P2;Temp;Humidity;BMP_temperature;BMP_pressure;BME280_temperature;BME280_humidity;BME280_pressure;Samples;Min_cycle;Max_cycle;Signal;HPM_P1;HPM_P2
2022/06/07 00:00:23;;;;;;;0.00;0.00;;;;;;;;;;5052760;27;99369;-74
2022/06/07 00:02:50;;;;;;;0.00;0.00;;;;;;;;;;5053047;27;98342;-74
2022/06/07 00:05:17;;;;;;;0.00;0.00;;;;;;;;;;5039811;27;99504;-74
2022/06/07 00:07:43;;;;;;;0.00;0.00;;;;;;;;;;5056426;27;98403;-73
2022/06/07 00:10:10;;;;;;;0.00;0.00;;;;;;;;;;5056460;27;98883;-74
2022/06/07 00:12:37;;;;;;;0.00;0.00;;;;;;;;;;5037272;27;103450;-74
2022/06/07 00:15:03;;;;;;;0.00;0.00;;;;;;;;;;5056676;27;98408;-74
2022/06/07 00:17:30;;;;;;;0.00;0.00;;;;;;;;;;5056482;27;99420;-75
2022/06/07 00:19:57;;;;;;;0.00;0.00;;;;;;;;;;5055604;27;99770;-74
2022/06/07 00:22:23;;;;;;;0.00;0.00;;;;;;;;;;5056459;27;98287;-75
2022/06/07 00:24:49;;;;;;;0.00;0.00;;;;;;;;;;5056407;27;99508;-74
2022/06/07 00:27:16;;;;;;;0.00;0.00;;;;;;;;;;5059346;27;99722;-74
2022/06/07 00:29:44;;;;;;;0.00;0.00;;;;;;;;;;5038458;27;100784;-74
2022/06/07 00:32:11;;;;;;;0.00;0.00;;;;;;;;;;5037200;27;100443;-75
2022/06/07 00:34:38;;;;;;;0.00;0.00;;;;;;;;;;5055998;27;98416;-74
2022/06/07 00:37:04;;;;;;;0.10;0.10;;;;;;;;;;5037553;27;102581;-74
2022/06/07 00:39:31;;;;;;;0.00;0.00;;;;;;;;;;5055702;27;99650;-74
2022/06/07 00:41:57;;;;;;;0.00;0.00;;;;;;;;;;5037862;27;99720;-75
2022/06/07 00:44:29;;;;;;;0.00;0.00;;;;;;;;;;5056155;27;99553;-74
2022/06/07 00:47:01;;;;;;;0.00;0.00;;;;;;;;;;5037186;27;102699;-73
2022/06/07 00:49:27;;;;;;;;;;;;;;;;;;5042065;27;98257;-74
2022/06/07 00:51:54;;;;;;;0.00;0.00;;;;;;;;;;5036623;27;128052;-74
2022/06/07 00:54:23;;;;;;;0.00;0.00;;;;;;;;;;5038140;27;97835;-74
2022/06/07 00:56:54;;;;;;;0.00;0.00;;;;;;;;;;5037746;27;100464;-74
2022/06/07 00:59:26;;;;;;;0.00;0.00;;;;;;;;;;5036932;27;101858;-75
2022/06/07 01:01:52;;;;;;;0.00;0.00;;;;;;;;;;5037121;27;99192;-74
2022/06/07 01:04:23;;;;;;;0.00;0.00;;;;;;;;;;5037439;27;102037;-74
2022/06/07 01:12:22;;;;;;;0.00;0.00;;;;;;;;;;5058593;27;99262;-74
2022/06/07 01:14:48;;;;;;;0.00;0.00;;;;;;;;;;5037353;27;98913;-75
2022/06/07 01:17:15;;;;;;;0.00;0.00;;;;;;;;;;5034975;27;101880;-75
2022/06/07 01:19:41;;;;;;;0.00;0.00;;;;;;;;;;5037538;27;100637;-73
2022/06/07 01:22:08;;;;;;;0.00;0.00;;;;;;;;;;5055001;27;98349;-74
2022/06/07 01:24:36;;;;;;;0.00;0.00;;;;;;;;;;5037256;27;99970;-74
2022/06/07 01:27:05;;;;;;;0.00;0.00;;;;;;;;;;5036437;27;102680;-74
2022/06/07 01:29:32;;;;;;;0.00;0.00;;;;;;;;;;5037409;27;98431;-74
2022/06/07 01:32:00;;;;;;;0.00;0.00;;;;;;;;;;5040263;27;101850;-74
2022/06/07 01:34:27;;;;;;;0.00;0.00;;;;;;;;;;5037000;27;98550;-75
2022/06/07 01:36:57;;;;;;;0.00;0.00;;;;;;;;;;5037110;27;100580;-75
2022/06/07 01:42:13;;;;;;;0.00;0.00;;;;;;;;;;5055111;27;98516;-74
2022/06/07 01:44:40;;;;;;;0.00;0.00;;;;;;;;;;5055532;27;98876;-74
2022/06/07 01:47:10;;;;;;;0.00;0.00;;;;;;;;;;5036645;27;101835;-74
2022/06/07 01:49:43;;;;;;;0.00;0.00;;;;;;;;;;5036753;27;98629;-74
2022/06/07 01:52:10;;;;;;;0.00;0.00;;;;;;;;;;5054662;27;99228;-74
2022/06/07 01:54:40;;;;;;;0.00;0.00;;;;;;;;;;5039474;27;102071;-74
2022/06/07 01:57:07;;;;;;;0.00;0.00;;;;;;;;;;5037011;27;100896;-74
2022/06/07 01:59:34;;;;;;;0.00;0.00;;;;;;;;;;5036366;27;102035;-74
2022/06/07 02:02:02;;;;;;;0.00;0.00;;;;;;;;;;5036232;27;98355;-74
2022/06/07 02:04:28;;;;;;;0.00;0.00;;;;;;;;;;5054834;27;99151;-74
2022/06/07 02:06:55;;;;;;;0.00;0.00;;;;;;;;;;5054506;27;99213;-74
2022/06/07 02:09:29;;;;;;;0.00;0.00;;;;;;;;;;5036693;27;97770;-74
2022/06/07 02:11:56;;;;;;;0.00;0.00;;;;;;;;;;5036407;27;101253;-74
2022/06/07 02:14:23;;;;;;;0.00;0.00;;;;;;;;;;5035759;27;102400;-74
2022/06/07 02:16:49;;;;;;;0.00;0.00;;;;;;;;;;5057647;27;99135;-74
2022/06/07 02:19:19;;;;;;;0.00;0.00;;;;;;;;;;5035963;27;101094;-74
2022/06/07 02:21:45;;;;;;;0.00;0.00;;;;;;;;;;5054610;27;98494;-74
2022/06/07 02:24:12;;;;;;;0.00;0.00;;;;;;;;;;5036521;27;101207;-74
2022/06/07 02:26:43;;;;;;;0.08;0.08;;;;;;;;;;5053935;27;99086;-74
2022/06/07 02:29:11;;;;;;;0.00;0.00;;;;;;;;;;5053385;27;98378;-74
2022/06/07 02:31:40;;;;;;;0.00;0.00;;;;;;;;;;5036321;27;102727;-74
2022/06/07 02:34:07;;;;;;;0.00;0.00;;;;;;;;;;5054419;27;98862;-74
2022/06/07 02:36:33;;;;;;;0.00;0.00;;;;;;;;;;5054420;27;98278;-74
2022/06/07 02:39:01;;;;;;;0.00;0.00;;;;;;;;;;5038986;27;102404;-74
2022/06/07 02:41:29;;;;;;;0.00;0.00;;;;;;;;;;5035663;27;100274;-74
2022/06/07 02:43:55;;;;;;;0.00;0.00;;;;;;;;;;5054082;27;100276;-74
2022/06/07 02:46:22;;;;;;;0.00;0.00;;;;;;;;;;5054068;27;99479;-75
2022/06/07 02:48:49;;;;;;;0.00;0.00;;;;;;;;;;5035972;27;98523;-74
2022/06/07 02:51:16;;;;;;;0.00;0.00;;;;;;;;;;5035814;27;101671;-74
2022/06/07 02:53:42;;;;;;;0.10;0.10;;;;;;;;;;5035258;27;101970;-74
2022/06/07 02:56:09;;;;;;;0.00;0.00;;;;;;;;;;5035397;27;98425;-74
2022/06/07 02:58:36;;;;;;;0.00;0.00;;;;;;;;;;5019967;27;101826;-74
2022/06/07 03:01:05;;;;;;;0.00;0.00;;;;;;;;;;5038682;27;102160;-74
2022/06/07 03:03:38;;;;;;;0.00;0.00;;;;;;;;;;5035702;27;101444;-74
2022/06/07 03:06:08;;;;;;;0.00;0.00;;;;;;;;;;5034487;27;101761;-75
2022/06/07 03:08:36;;;;;;;0.00;0.00;;;;;;;;;;5035599;27;98438;-74
2022/06/07 03:11:03;;;;;;;0.00;0.00;;;;;;;;;;5035303;27;102049;-74
2022/06/07 03:13:32;;;;;;;0.00;0.00;;;;;;;;;;5035213;27;101787;-74
2022/06/07 03:16:01;;;;;;;0.00;0.00;;;;;;;;;;5035579;27;98561;-74
2022/06/07 03:18:28;;;;;;;0.00;0.00;;;;;;;;;;5035427;27;101384;-74
2022/06/07 03:20:54;;;;;;;0.00;0.00;;;;;;;;;;5035190;27;100342;-74
2022/06/07 03:23:23;;;;;;;0.00;0.00;;;;;;;;;;5038736;27;97710;-74
2022/06/07 03:26:05;;;;;;;0.00;0.00;;;;;;;;;;5034802;27;102217;-74
2022/06/07 03:28:34;;;;;;;0.00;0.00;;;;;;;;;;5035133;27;98604;-74
2022/06/07 03:31:05;;;;;;;0.00;0.00;;;;;;;;;;5052678;27;99211;-74
2022/06/07 03:33:35;;;;;;;0.20;0.20;;;;;;;;;;5034678;27;102160;-74
2022/06/07 03:36:04;;;;;;;0.00;0.00;;;;;;;;;;5035005;27;98703;-74
2022/06/07 03:38:34;;;;;;;0.00;0.00;;;;;;;;;;5035210;27;99744;-74
2022/06/07 03:41:00;;;;;;;0.00;0.00;;;;;;;;;;5033955;27;102590;-74
2022/06/07 03:43:26;;;;;;;0.00;0.00;;;;;;;;;;5038543;27;98496;-74
2022/06/07 03:45:53;;;;;;;0.00;0.00;;;;;;;;;;5034705;27;102822;-74
2022/06/07 03:48:19;;;;;;;0.00;0.00;;;;;;;;;;5035079;27;97689;-73
2022/06/07 03:50:48;;;;;;;0.00;0.00;;;;;;;;;;5035091;27;101333;-75
2022/06/07 03:53:17;;;;;;;0.00;0.00;;;;;;;;;;5034774;27;101820;-74
2022/06/07 03:55:47;;;;;;;0.00;0.00;;;;;;;;;;5034473;27;99165;-75
2022/06/07 03:58:16;;;;;;;0.00;0.00;;;;;;;;;;5035141;27;101080;-74
2022/06/07 04:00:43;;;;;;;0.00;0.00;;;;;;;;;;5034497;27;102492;-76
2022/06/07 04:03:10;;;;;;;0.00;0.00;;;;;;;;;;5034882;27;99059;-74
2022/06/07 04:05:44;;;;;;;0.00;0.00;;;;;;;;;;5037974;27;102403;-74
2022/06/07 04:08:13;;;;;;;0.00;0.00;;;;;;;;;;5034930;27;98440;-74
2022/06/07 04:10:45;;;;;;;;;;;;;;;;;;5034851;27;101353;-74
2022/06/07 04:13:14;;;;;;;0.00;0.00;;;;;;;;;;5035074;27;100524;-74
2022/06/07 04:15:41;;;;;;;0.00;0.00;;;;;;;;;;5049648;27;98409;-74
2022/06/07 04:18:07;;;;;;;0.00;0.00;;;;;;;;;;5052723;27;99635;-75
2022/06/07 04:20:36;;;;;;;0.15;0.15;;;;;;;;;;5033722;27;103336;-75
2022/06/07 04:23:03;;;;;;;0.00;0.00;;;;;;;;;;5034631;27;98449;-74
2022/06/07 04:25:34;;;;;;;0.15;0.15;;;;;;;;;;5052747;27;99879;-74
2022/06/07 04:28:01;;;;;;;0.05;0.05;;;;;;;;;;5036990;27;101780;-74
2022/06/07 04:30:30;;;;;;;0.00;0.00;;;;;;;;;;5034374;27;101643;-74
2022/06/07 04:33:00;;;;;;;0.00;0.00;;;;;;;;;;5034246;27;102046;-74
2022/06/07 04:35:27;;;;;;;0.00;0.00;;;;;;;;;;5034579;27;98532;-75
2022/06/07 04:37:58;;;;;;;0.00;0.00;;;;;;;;;;5035242;27;100956;-70
2022/06/07 04:40:31;;;;;;;0.10;0.10;;;;;;;;;;5033484;27;102438;-74
2022/06/07 04:42:59;;;;;;;0.00;0.00;;;;;;;;;;5052684;27;98433;-75
2022/06/07 04:45:31;;;;;;;0.00;0.00;;;;;;;;;;5034218;27;103274;-74
2022/06/07 04:48:09;;;;;;;0.00;0.00;;;;;;;;;;5033985;27;102078;-74
2022/06/07 04:51:00;;;;;;;0.00;0.00;;;;;;;;;;5055590;27;98413;-74
2022/06/07 04:53:27;;;;;;;0.10;0.10;;;;;;;;;;5037353;27;101815;-74
2022/06/07 04:55:54;;;;;;;0.00;0.00;;;;;;;;;;5037729;27;98423;-74
2022/06/07 04:58:21;;;;;;;0.00;0.00;;;;;;;;;;5037687;27;102440;-74
2022/06/07 05:00:50;;;;;;;0.00;0.00;;;;;;;;;;5037283;27;101969;-74
2022/06/07 05:03:17;;;;;;;0.00;0.00;;;;;;;;;;5038190;27;97647;-75
2022/06/07 05:05:44;;;;;;;0.00;0.00;;;;;;;;;;5037318;27;101672;-75
2022/06/07 05:08:17;;;;;;;0.00;0.00;;;;;;;;;;5037303;27;101543;-73
2022/06/07 05:10:45;;;;;;;0.00;0.00;;;;;;;;;;5036687;27;99238;-74
2022/06/07 05:13:11;;;;;;;0.00;0.00;;;;;;;;;;5058675;27;99345;-74
2022/06/07 05:15:39;;;;;;;0.00;0.00;;;;;;;;;;5037316;27;98491;-74
2022/06/07 05:18:10;;;;;;;0.00;0.00;;;;;;;;;;5036866;27;101743;-73
2022/06/07 05:20:39;;;;;;;0.00;0.00;;;;;;;;;;5036948;27;100169;-73
2022/06/07 05:23:11;;;;;;;0.47;0.47;;;;;;;;;;5037562;27;98509;-72
2022/06/07 05:25:44;;;;;;;0.00;0.00;;;;;;;;;;5037244;27;102232;-74
2022/06/07 05:28:11;;;;;;;0.10;0.10;;;;;;;;;;5037451;27;101258;-74
2022/06/07 05:30:37;;;;;;;0.00;0.00;;;;;;;;;;5036782;27;98755;-74
2022/06/07 05:33:13;;;;;;;0.15;0.15;;;;;;;;;;5058209;27;99256;-74
2022/06/07 05:35:48;;;;;;;0.17;0.17;;;;;;;;;;5036681;27;99258;-74
2022/06/07 05:38:18;;;;;;;0.00;0.00;;;;;;;;;;5036943;27;102677;-73
2022/06/07 05:40:55;;;;;;;0.10;0.10;;;;;;;;;;5054621;27;99528;-74
2022/06/07 05:43:22;;;;;;;0.05;0.05;;;;;;;;;;5055056;27;99232;-73
2022/06/07 05:45:53;;;;;;;0.00;0.00;;;;;;;;;;5037152;27;102257;-74
2022/06/07 05:48:40;;;;;;;0.00;0.00;;;;;;;;;;5053624;27;100012;-73
2022/06/07 05:51:11;;;;;;;0.17;0.17;;;;;;;;;;5055347;27;98461;-73
2022/06/07 05:53:38;;;;;;;0.00;0.00;;;;;;;;;;5036555;27;101761;-73
2022/06/07 05:56:12;;;;;;;0.10;0.10;;;;;;;;;;5039631;27;101700;-73
2022/06/07 05:58:40;;;;;;;0.00;0.00;;;;;;;;;;5036701;27;101780;-73
2022/06/07 06:01:10;;;;;;;0.10;0.10;;;;;;;;;;5035983;27;102867;-73
2022/06/07 06:03:40;;;;;;;0.00;0.00;;;;;;;;;;5035696;27;98438;-73
2022/06/07 06:06:11;;;;;;;0.10;0.10;;;;;;;;;;5036173;27;101818;-73
2022/06/07 06:11:32;;;;;;;0.00;0.00;;;;;;;;;;5036899;27;98549;-73
2022/06/07 06:14:06;;;;;;;0.00;0.00;;;;;;;;;;5036475;27;101406;-74
2022/06/07 06:16:37;;;;;;;0.10;0.10;;;;;;;;;;5035576;27;102329;-72
2022/06/07 06:19:07;;;;;;;0.10;0.10;;;;;;;;;;5040442;27;97547;-72
2022/06/07 06:21:42;;;;;;;0.00;0.00;;;;;;;;;;5036064;27;102452;-73
2022/06/07 06:24:12;;;;;;;0.00;0.00;;;;;;;;;;5036309;27;98488;-71
2022/06/07 06:26:39;;;;;;;0.00;0.00;;;;;;;;;;5035931;27;101912;-71
2022/06/07 06:29:08;;;;;;;0.00;0.00;;;;;;;;;;5035555;27;102546;-72
2022/06/07 06:31:37;;;;;;;0.00;0.00;;;;;;;;;;5036305;27;98524;-72
2022/06/07 06:34:04;;;;;;;0.00;0.00;;;;;;;;;;5054320;27;99236;-72
2022/06/07 06:36:30;;;;;;;0.00;0.00;;;;;;;;;;5053864;27;99433;-72
2022/06/07 06:38:59;;;;;;;0.00;0.00;;;;;;;;;;5036099;27;98371;-72
2022/06/07 06:41:30;;;;;;;0.00;0.00;;;;;;;;;;5038513;27;99968;-72
2022/06/07 06:43:58;;;;;;;0.13;0.13;;;;;;;;;;5036584;27;97702;-72
2022/06/07 06:46:39;;;;;;;0.08;0.08;;;;;;;;;;5035941;27;101873;-72
2022/06/07 06:49:08;;;;;;;0.00;0.00;;;;;;;;;;5019004;27;102499;-73
2022/06/07 06:51:36;;;;;;;0.00;0.00;;;;;;;;;;5035554;27;99234;-73
2022/06/07 06:54:04;;;;;;;0.10;0.10;;;;;;;;;;5035368;27;101999;-72
2022/06/07 06:56:36;;;;;;;0.00;0.00;;;;;;;;;;5035403;27;101125;-75
2022/06/07 06:59:12;;;;;;;0.00;0.00;;;;;;;;;;5035876;27;99431;-75
2022/06/07 07:01:40;;;;;;;0.00;0.00;;;;;;;;;;5035914;27;100665;-75
2022/06/07 07:04:10;;;;;;;0.00;0.00;;;;;;;;;;5038670;27;102605;-78
2022/06/07 07:06:37;;;;;;;0.00;0.00;;;;;;;;;;5035435;27;100763;-72
2022/06/07 07:09:05;;;;;;;0.00;0.00;;;;;;;;;;5035653;27;101223;-72
2022/06/07 07:11:35;;;;;;;0.10;0.10;;;;;;;;;;5053677;27;98440;-71
2022/06/07 07:14:06;;;;;;;0.00;0.00;;;;;;;;;;5035533;27;101591;-75
2022/06/07 07:16:36;;;;;;;0.00;0.00;;;;;;;;;;5034696;27;102660;-71
2022/06/07 07:19:04;;;;;;;0.00;0.00;;;;;;;;;;5035183;27;98494;-73
2022/06/07 07:21:33;;;;;;;0.00;0.00;;;;;;;;;;5035488;27;101616;-72
2022/06/07 07:24:04;;;;;;;0.17;0.17;;;;;;;;;;5035101;27;101934;-74
2022/06/07 07:26:31;;;;;;;0.00;0.00;;;;;;;;;;5038743;27;98596;-72
2022/06/07 07:28:59;;;;;;;0.00;0.00;;;;;;;;;;5034823;27;102399;-71
2022/06/07 07:31:32;;;;;;;0.00;0.00;;;;;;;;;;5012859;28;98505;-72
2022/06/07 07:34:03;;;;;;;0.00;0.00;;;;;;;;;;5017102;27;102247;-73
2022/06/07 07:36:30;;;;;;;0.10;0.10;;;;;;;;;;5014086;28;101019;-72
2022/06/07 07:38:57;;;;;;;0.00;0.00;;;;;;;;;;5014438;28;98420;-71
2022/06/07 07:41:28;;;;;;;0.00;0.00;;;;;;;;;;5013890;28;103248;-71
2022/06/07 07:43:56;;;;;;;0.13;0.13;;;;;;;;;;5013903;28;101707;-75
2022/06/07 07:46:24;;;;;;;0.00;0.00;;;;;;;;;;5035530;27;98578;-72
2022/06/07 07:48:51;;;;;;;0.10;0.10;;;;;;;;;;5013919;27;101494;-73
2022/06/07 07:51:22;;;;;;;0.00;0.00;;;;;;;;;;5014403;27;98623;-73
2022/06/07 07:53:51;;;;;;;0.00;0.00;;;;;;;;;;5016578;27;102228;-75
2022/06/07 07:56:19;;;;;;;0.00;0.00;;;;;;;;;;5013832;27;101784;-76
2022/06/07 07:58:47;;;;;;;0.03;0.03;;;;;;;;;;5014223;27;97743;-76
2022/06/07 08:01:15;;;;;;;0.20;0.20;;;;;;;;;;5032416;27;99175;-77
2022/06/07 08:03:43;;;;;;;0.00;0.00;;;;;;;;;;5015974;27;102650;-77
2022/06/07 08:06:18;;;;;;;0.10;0.10;;;;;;;;;;5013645;27;99105;-79
2022/06/07 08:08:45;;;;;;;0.00;0.00;;;;;;;;;;5035095;27;99681;-79
2022/06/07 08:11:12;;;;;;;0.10;0.10;;;;;;;;;;5031258;27;98453;-79
2022/06/07 08:13:39;;;;;;;0.13;0.13;;;;;;;;;;5034581;27;101378;-81
2022/06/07 08:16:06;;;;;;;0.10;0.10;;;;;;;;;;5031751;27;99522;-80
2022/06/07 08:18:34;;;;;;;0.20;0.20;;;;;;;;;;5032088;27;98456;-81
2022/06/07 08:21:02;;;;;;;0.00;0.00;;;;;;;;;;5032419;27;99374;-76
2022/06/07 08:23:28;;;;;;;0.00;0.00;;;;;;;;;;5032088;27;98868;-78
2022/06/07 08:25:55;;;;;;;0.00;0.00;;;;;;;;;;5032885;27;98321;-77
2022/06/07 08:28:22;;;;;;;0.22;0.22;;;;;;;;;;5035518;27;99581;-80
2022/06/07 08:30:49;;;;;;;2.28;0.30;;;;;;;;;;5038105;27;100295;-78
2022/06/07 08:38:45;;;;;;;0.63;0.63;;;;;;;;;;5035255;27;98405;-73
2022/06/07 08:41:30;;;;;;;1.83;1.73;;;;;;;;;;5035123;27;99892;-80
2022/06/07 08:44:08;;;;;;;0.30;0.30;;;;;;;;;;5038874;27;100092;-79
2022/06/07 08:46:36;;;;;;;0.17;0.17;;;;;;;;;;5035073;27;98424;-78
2022/06/07 08:49:04;;;;;;;0.00;0.00;;;;;;;;;;5020693;27;100306;-80
2022/06/07 08:51:35;;;;;;;0.05;0.05;;;;;;;;;;5036904;27;99278;-79
2022/06/07 08:54:11;;;;;;;0.10;0.10;;;;;;;;;;5039020;27;98296;-79
2022/06/07 08:56:38;;;;;;;0.20;0.20;;;;;;;;;;5034115;27;100775;-75
2022/06/07 08:59:15;;;;;;;0.00;0.00;;;;;;;;;;5034699;27;98341;-77
2022/06/07 09:01:47;;;;;;;0.10;0.10;;;;;;;;;;5034767;27;99486;-75
2022/06/07 09:04:29;;;;;;;0.00;0.00;;;;;;;;;;5036982;27;99624;-79
2022/06/07 09:06:59;;;;;;;0.10;0.10;;;;;;;;;;5035213;27;99099;-78
2022/06/07 09:12:30;;;;;;;0.00;0.00;;;;;;;;;;5008343;27;99438;-79
2022/06/07 09:14:58;;;;;;;0.10;0.10;;;;;;;;;;5035499;27;97589;-77
2022/06/07 09:17:29;;;;;;;0.00;0.00;;;;;;;;;;5037578;27;98497;-77
2022/06/07 09:19:55;;;;;;;0.50;0.50;;;;;;;;;;5034578;27;98407;-78
2022/06/07 09:22:25;;;;;;;0.00;0.00;;;;;;;;;;5034125;27;99327;-78
2022/06/07 09:24:57;;;;;;;0.00;0.00;;;;;;;;;;5034300;27;99381;-76
2022/06/07 09:27:26;;;;;;;0.00;0.00;;;;;;;;;;5038842;27;98479;-80
2022/06/07 09:29:57;;;;;;;0.10;0.10;;;;;;;;;;5034432;27;99393;-79
2022/06/07 09:32:26;;;;;;;0.00;0.00;;;;;;;;;;5038981;27;100036;-79
2022/06/07 09:34:58;;;;;;;0.08;0.08;;;;;;;;;;5036566;27;99532;-80
2022/06/07 09:37:29;;;;;;;0.00;0.00;;;;;;;;;;5035994;27;99656;-81
2022/06/07 09:40:01;;;;;;;0.03;0.03;;;;;;;;;;5040749;27;98758;-77
2022/06/07 09:42:28;;;;;;;0.10;0.10;;;;;;;;;;5038053;27;99107;-78
2022/06/07 09:45:07;;;;;;;0.10;0.10;;;;;;;;;;5036260;27;99607;-76
2022/06/07 09:47:34;;;;;;;0.10;0.10;;;;;;;;;;5016798;28;99124;-77
2022/06/07 09:50:03;;;;;;;0.10;0.10;;;;;;;;;;5036299;27;100133;-73
2022/06/07 09:52:42;;;;;;;0.10;0.10;;;;;;;;;;5039667;27;100805;-77
2022/06/07 09:55:19;;;;;;;0.00;0.00;;;;;;;;;;5037050;27;98343;-80
2022/06/07 09:57:55;;;;;;;0.10;0.10;;;;;;;;;;5035978;27;102078;-79
2022/06/07 10:00:21;;;;;;;0.00;0.00;;;;;;;;;;5023865;28;98515;-79
2022/06/07 10:02:55;;;;;;;0.00;0.00;;;;;;;;;;5038510;27;98601;-77
2022/06/07 10:05:30;;;;;;;0.00;0.00;;;;;;;;;;5035014;27;98853;-80
2022/06/07 10:08:11;;;;;;;0.00;0.00;;;;;;;;;;5034250;27;98438;-81
2022/06/07 10:10:53;;;;;;;0.10;0.10;;;;;;;;;;5033945;27;100468;-82
2022/06/07 10:13:22;;;;;;;0.20;0.20;;;;;;;;;;5017939;27;99831;-82
2022/06/07 10:15:57;;;;;;;0.22;0.22;;;;;;;;;;5034306;27;98548;-80
2022/06/07 10:18:30;;;;;;;0.08;0.08;;;;;;;;;;5033863;27;99521;-81
2022/06/07 10:21:11;;;;;;;0.10;0.10;;;;;;;;;;5033900;27;100082;-82
2022/06/07 10:23:41;;;;;;;0.10;0.10;;;;;;;;;;5045034;27;98972;-83
2022/06/07 10:26:26;;;;;;;0.00;0.00;;;;;;;;;;5034252;27;98597;-82
2022/06/07 10:29:12;;;;;;;0.00;0.00;;;;;;;;;;5033813;27;98857;-81
2022/06/07 10:31:39;;;;;;;0.20;0.20;;;;;;;;;;5032960;27;100309;-79
2022/06/07 10:34:16;;;;;;;0.10;0.10;;;;;;;;;;5033359;27;100153;-78
2022/06/07 10:36:58;;;;;;;0.30;0.30;;;;;;;;;;5034058;28;98405;-83
2022/06/07 10:39:32;;;;;;;0.10;0.10;;;;;;;;;;5033653;28;99611;-80
2022/06/07 10:42:08;;;;;;;0.10;0.10;;;;;;;;;;5034296;28;99290;-79
2022/06/07 10:44:44;;;;;;;0.00;0.00;;;;;;;;;;5017703;28;98567;-80
2022/06/07 10:47:49;;;;;;;0.08;0.08;;;;;;;;;;5037130;28;99649;-82
2022/06/07 10:50:28;;;;;;;0.10;0.10;;;;;;;;;;4932873;28;98558;-80
2022/06/07 10:53:14;;;;;;;0.10;0.10;;;;;;;;;;5023793;28;98390;-71
2022/06/07 10:55:47;;;;;;;0.08;0.08;;;;;;;;;;5033344;28;99535;-73
2022/06/07 10:58:25;;;;;;;0.20;0.20;;;;;;;;;;5033758;28;97697;-72
2022/06/07 11:01:02;;;;;;;0.00;0.00;;;;;;;;;;5033872;28;99169;-75
2022/06/07 11:03:48;;;;;;;0.08;0.08;;;;;;;;;;5033278;28;99542;-74
2022/06/07 11:09:21;;;;;;;0.22;0.22;;;;;;;;;;5033282;28;99502;-74
2022/06/07 11:11:59;;;;;;;0.17;0.17;;;;;;;;;;5036462;28;99416;-73
2022/06/07 11:14:32;;;;;;;0.65;0.65;;;;;;;;;;5033458;28;99354;-73
2022/06/07 11:17:06;;;;;;;0.10;0.10;;;;;;;;;;5032411;28;99526;-73
2022/06/07 11:19:33;;;;;;;0.00;0.00;;;;;;;;;;5033368;28;98328;-74
2022/06/07 11:22:04;;;;;;;0.00;0.00;;;;;;;;;;5033542;28;98727;-74
2022/06/07 11:24:33;;;;;;;0.00;0.00;;;;;;;;;;5015942;28;98367;-73
2022/06/07 11:27:13;;;;;;;0.10;0.10;;;;;;;;;;5033387;28;98427;-73
2022/06/07 11:29:40;;;;;;;0.03;0.03;;;;;;;;;;5032907;28;99368;-73
2022/06/07 11:32:37;;;;;;;0.10;0.10;;;;;;;;;;5032172;28;100545;-73
2022/06/07 11:35:22;;;;;;;0.13;0.13;;;;;;;;;;5036484;28;98379;-74
2022/06/07 11:37:56;;;;;;;0.10;0.10;;;;;;;;;;5032341;28;99764;-74
2022/06/07 11:40:31;;;;;;;0.20;0.20;;;;;;;;;;5033740;28;98510;-76
2022/06/07 11:42:58;;;;;;;0.00;0.00;;;;;;;;;;5032957;28;98851;-71
2022/06/07 11:45:25;;;;;;;0.25;0.25;;;;;;;;;;5032763;28;99115;-71
2022/06/07 11:48:03;;;;;;;0.05;0.05;;;;;;;;;;5032924;28;98367;-72
2022/06/07 11:50:31;;;;;;;0.10;0.10;;;;;;;;;;5033218;28;99407;-71
2022/06/07 11:53:00;;;;;;;0.10;0.10;;;;;;;;;;5032367;28;100144;-72
2022/06/07 11:55:29;;;;;;;0.10;0.10;;;;;;;;;;5032796;28;98429;-72
2022/06/07 11:58:04;;;;;;;0.10;0.10;;;;;;;;;;5017372;28;100071;-71
2022/06/07 12:00:30;;;;;;;0.70;0.60;;;;;;;;;;5015178;28;98375;-71
2022/06/07 12:02:57;;;;;;;0.28;0.28;;;;;;;;;;5035846;28;99646;-71
2022/06/07 12:05:28;;;;;;;0.10;0.10;;;;;;;;;;5036050;28;99937;-71
2022/06/07 12:07:59;;;;;;;0.10;0.10;;;;;;;;;;5036474;28;98470;-71
2022/06/07 12:10:28;;;;;;;0.20;0.20;;;;;;;;;;5036055;28;99543;-71
2022/06/07 12:12:56;;;;;;;0.30;0.30;;;;;;;;;;5035864;28;99852;-72
2022/06/07 12:15:25;;;;;;;0.10;0.10;;;;;;;;;;5036197;28;97621;-72
2022/06/07 12:18:14;;;;;;;0.00;0.00;;;;;;;;;;5038974;28;98532;-72
2022/06/07 12:20:41;;;;;;;0.10;0.10;;;;;;;;;;5027890;28;98494;-72
2022/06/07 12:23:21;;;;;;;0.10;0.10;;;;;;;;;;5035856;28;99037;-71
2022/06/07 12:25:55;;;;;;;0.10;0.10;;;;;;;;;;5035254;28;99773;-72
2022/06/07 12:28:23;;;;;;;0.10;0.10;;;;;;;;;;5035897;28;98509;-72
2022/06/07 12:30:49;;;;;;;0.20;0.20;;;;;;;;;;5035925;28;99685;-72
2022/06/07 12:33:29;;;;;;;0.10;0.10;;;;;;;;;;5035674;28;99453;-72
2022/06/07 12:35:57;;;;;;;0.10;0.10;;;;;;;;;;5018295;28;98456;-72
2022/06/07 12:38:23;;;;;;;0.10;0.10;;;;;;;;;;5035011;28;99226;-73
2022/06/07 12:41:12;;;;;;;0.13;0.13;;;;;;;;;;5039205;28;98678;-72
2022/06/07 12:43:44;;;;;;;0.10;0.10;;;;;;;;;;5036114;28;98325;-73
2022/06/07 12:46:19;;;;;;;0.10;0.10;;;;;;;;;;5035367;28;99661;-73
2022/06/07 12:48:46;;;;;;;0.10;0.10;;;;;;;;;;5034582;28;99709;-72
2022/06/07 12:51:27;;;;;;;0.10;0.10;;;;;;;;;;5035070;28;101698;-72
2022/06/07 12:54:20;;;;;;;0.10;0.10;;;;;;;;;;5035204;28;99475;-78
2022/06/07 13:04:55;;;;;;;0.10;0.10;;;;;;;;;;5033882;28;100376;-76
2022/06/07 13:07:33;;;;;;;0.10;0.10;;;;;;;;;;5039156;28;98586;-83
2022/06/07 13:10:32;;;;;;;;;;;;;;;;;;;;;
2022/06/07 13:13:39;;;;;;;0.10;0.10;;;;;;;;;;4986012;28;98940;-81
2022/06/07 13:16:32;;;;;;;1.55;0.63;;;;;;;;;;4994348;28;100109;-81
2022/06/07 13:19:20;;;;;;;0.05;0.05;;;;;;;;;;4993004;28;103918;-79
2022/06/07 13:21:56;;;;;;;0.17;0.17;;;;;;;;;;4994296;28;98460;-79
2022/06/07 13:24:31;;;;;;;0.10;0.10;;;;;;;;;;4993659;28;100484;-82
2022/06/07 13:27:02;;;;;;;0.13;0.13;;;;;;;;;;4993501;28;101825;-78
2022/06/07 13:29:31;;;;;;;0.10;0.10;;;;;;;;;;4995160;28;98378;-78
2022/06/07 13:32:17;;;;;;;0.13;0.13;;;;;;;;;;4997606;28;100261;-77
2022/06/07 13:34:52;;;;;;;0.00;0.00;;;;;;;;;;4993958;28;98558;-78
2022/06/07 13:37:21;;;;;;;0.10;0.10;;;;;;;;;;4995345;28;99275;-79
2022/06/07 13:40:06;;;;;;;0.10;0.10;;;;;;;;;;4994369;28;100063;-79
2022/06/07 13:42:35;;;;;;;0.10;0.10;;;;;;;;;;4994651;28;98370;-79
2022/06/07 13:45:13;;;;;;;0.17;0.17;;;;;;;;;;4989455;28;99062;-79
2022/06/07 13:47:43;;;;;;;0.10;0.10;;;;;;;;;;4994226;28;98944;-79
2022/06/07 13:55:50;;;;;;;0.20;0.20;;;;;;;;;;4997337;28;99973;-78
2022/06/07 13:58:17;;;;;;;0.10;0.10;;;;;;;;;;4992596;28;99176;-78
2022/06/07 14:00:49;;;;;;;7.00;0.52;;;;;;;;;;4993288;28;99079;-80
2022/06/07 14:03:24;;;;;;;0.10;0.10;;;;;;;;;;4994325;28;97628;-79
2022/06/07 14:05:59;;;;;;;0.17;0.17;;;;;;;;;;4993540;28;98452;-79
2022/06/07 14:08:26;;;;;;;0.10;0.10;;;;;;;;;;4997967;28;100094;-79
2022/06/07 14:10:52;;;;;;;0.20;0.20;;;;;;;;;;4992185;28;99281;-81
2022/06/07 14:13:19;;;;;;;0.05;0.05;;;;;;;;;;4993610;28;100133;-77
2022/06/07 14:15:47;;;;;;;0.10;0.10;;;;;;;;;;4993257;28;99032;-79
2022/06/07 14:18:15;;;;;;;0.10;0.10;;;;;;;;;;4998106;28;98728;-79
2022/06/07 14:20:42;;;;;;;0.32;0.32;;;;;;;;;;4992675;28;99521;-77
2022/06/07 14:23:10;;;;;;;0.20;0.20;;;;;;;;;;4993271;28;98259;-78
2022/06/07 14:25:40;;;;;;;0.10;0.10;;;;;;;;;;4993627;28;99272;-78
2022/06/07 14:28:18;;;;;;;0.13;0.13;;;;;;;;;;4995023;28;98879;-77
2022/06/07 14:30:49;;;;;;;0.10;0.10;;;;;;;;;;4993408;28;98706;-78
2022/06/07 14:33:16;;;;;;;0.10;0.10;;;;;;;;;;4993047;28;99394;-81
2022/06/07 14:35:46;;;;;;;0.10;0.10;;;;;;;;;;4992821;28;100487;-78
2022/06/07 14:38:14;;;;;;;0.10;0.10;;;;;;;;;;4998351;28;98461;-77
2022/06/07 14:40:50;;;;;;;0.17;0.17;;;;;;;;;;4991757;28;99236;-80
2022/06/07 14:43:21;;;;;;;0.10;0.10;;;;;;;;;;4992650;28;98551;-78
2022/06/07 14:45:59;;;;;;;0.70;0.70;;;;;;;;;;4993244;28;98656;-75
2022/06/07 14:48:29;;;;;;;0.00;0.00;;;;;;;;;;4993917;28;101157;-76
2022/06/07 14:50:56;;;;;;;0.10;0.10;;;;;;;;;;4992865;28;98787;-81
2022/06/07 14:53:23;;;;;;;0.13;0.13;;;;;;;;;;4993777;28;99108;-76
2022/06/07 14:55:49;;;;;;;0.15;0.15;;;;;;;;;;4992990;28;99243;-77
2022/06/07 14:58:16;;;;;;;0.90;0.47;;;;;;;;;;4995678;28;98820;-75
2022/06/07 15:00:46;;;;;;;0.10;0.10;;;;;;;;;;4995163;28;99598;-76
2022/06/07 15:03:13;;;;;;;0.00;0.00;;;;;;;;;;4992821;28;98396;-77
2022/06/07 15:05:42;;;;;;;0.05;0.05;;;;;;;;;;4994578;28;100697;-76
2022/06/07 15:08:12;;;;;;;;;;;;;;;;;;4996488;28;99538;-77
2022/06/07 15:10:42;;;;;;;0.10;0.10;;;;;;;;;;5012773;27;98464;-76
2022/06/07 15:13:28;;;;;;;0.10;0.10;;;;;;;;;;5033024;27;99290;-78
2022/06/07 15:16:00;;;;;;;0.15;0.15;;;;;;;;;;5032065;27;99916;-75
2022/06/07 15:18:29;;;;;;;0.13;0.13;;;;;;;;;;5036736;27;98820;-75
2022/06/07 15:20:55;;;;;;;0.20;0.20;;;;;;;;;;5032720;27;98485;-76
2022/06/07 15:23:22;;;;;;;0.10;0.10;;;;;;;;;;5035773;27;99698;-76
2022/06/07 15:25:51;;;;;;;0.20;0.20;;;;;;;;;;5031640;27;99907;-80
2022/06/07 15:28:18;;;;;;;0.15;0.15;;;;;;;;;;5032659;27;99257;-80
2022/06/07 15:30:48;;;;;;;0.10;0.10;;;;;;;;;;5032708;27;98355;-79
2022/06/07 15:33:21;;;;;;;0.00;0.00;;;;;;;;;;5032691;27;99695;-78
2022/06/07 15:35:48;;;;;;;0.10;0.10;;;;;;;;;;5031951;27;99333;-81
2022/06/07 15:38:24;;;;;;;;;;;;;;;;;;5038131;27;98971;-80